M/V Michael Luhr — WDC2243 — position and weather

sailwx.info

Track history (hours):
 
Tides and Currents Weather Stations Pressure Air Temp Water Temp Dewpoint Dewpoint Depression Visibility Wind Speed Wind Dir Waves Ship Positions

M/V Michael Luhr

Owner: Luhr Bros., Inc, Cape Girardeau, MO. More information available from US FCC via Universal Licensing System and Coast Guard Vessel Documentation Center.

Last reported at 2018-Jun-21 03:47 UTC. Time now 2018-Jun-24 09:16 UTC.
Position N 32°40' W 091°08'.

Length 53 m; draft 3 m.

Type: Towing. MMSI: 366989940.

Date/timePositionNaut miles runAvg speedWind from/ knotsBaromVisibWave heightAir tempDewpointWater temp
2018-Jun-21 03:47N 32°40' W 091°08'3 3.7
2018-Jun-21 02:56N 32°37' W 091°09'1 1.4
2018-Jun-21 02:30N 32°36' W 091°09'0 0.0
2018-Jun-21 02:00N 32°36' W 091°09'0 0.0
2018-Jun-21 01:31N 32°36' W 091°09'1 2.2
2018-Jun-21 01:00N 32°36' W 091°08'2 4.1
2018-Jun-21 00:30N 32°34' W 091°06'5 4.3
2018-Jun-20 23:26N 32°30' W 091°07'2 4.6
2018-Jun-20 23:00N 32°28' W 091°06'2 4.7
2018-Jun-20 22:30N 32°27' W 091°04'3 5.1
2018-Jun-20 22:00N 32°26' W 091°01'2 4.4
2018-Jun-20 21:30N 32°24' W 090°59'2 4.7
2018-Jun-20 21:00N 32°21' W 091°00'2 4.8
2018-Jun-20 20:30N 32°21' W 090°57'2 5.1
2018-Jun-20 20:00N 32°20' W 090°54'2 4.3
2018-Jun-20 19:30N 32°18' W 090°55'0 0.5
2018-Jun-20 19:00N 32°18' W 090°55'0 0.0
2018-Jun-20 18:30N 32°18' W 090°55'0 0.0
2018-Jun-20 17:59N 32°18' W 090°55'0 0.0
2018-Jun-20 17:30N 32°18' W 090°55'0 0.0
2018-Jun-20 17:00N 32°18' W 090°55'0 0.0
2018-Jun-20 16:30N 32°18' W 090°55'1 2.6
2018-Jun-20 16:00N 32°17' W 090°57'2 4.6
2018-Jun-20 15:30N 32°16' W 090°58'2 4.1
2018-Jun-20 15:00N 32°14' W 090°59'2 4.2
2018-Jun-20 14:30N 32°12' W 090°60'2 3.6
2018-Jun-20 14:00N 32°10' W 091°00'2 3.9
2018-Jun-20 13:30N 32°08' W 091°00'2 3.6
2018-Jun-20 13:00N 32°07' W 091°02'2 3.8
2018-Jun-20 12:22N 32°08' W 091°05'1 2.8
2018-Jun-20 12:01N 32°08' W 091°06'2 3.4
2018-Jun-20 11:29N 32°06' W 091°06'3 2.9
2018-Jun-20 10:21N 32°03' W 091°03'1 4.0
2018-Jun-20 09:59N 32°02' W 091°04'2 4.6
2018-Jun-20 09:30N 32°00' W 091°05'6 3.7
2018-Jun-20 07:52N 31°57' W 091°11'7 3.6
2018-Jun-20 05:49N 31°51' W 091°17'3 3.7
2018-Jun-20 04:56N 31°51' W 091°21'2 3.5
2018-Jun-20 04:30N 31°49' W 091°21'2 3.4
2018-Jun-20 03:57N 31°48' W 091°21'2 3.6
2018-Jun-20 03:30N 31°46' W 091°22'4 4.1
2018-Jun-20 02:30N 31°42' W 091°24'26 0.8
2018-Jun-18 17:08N 32°02' W 091°04'1 7.6
2018-Jun-18 16:57N 32°03' W 091°03'3 7.7
2018-Jun-18 16:30N 32°06' W 091°06'5 5.4
2018-Jun-18 15:39N 32°08' W 091°01'1 8.4
2018-Jun-18 15:30N 32°09' W 091°00'4 7.8
2018-Jun-18 15:00N 32°13' W 090°59'4 7.8
2018-Jun-18 14:30N 32°16' W 090°57'4 8.2
2018-Jun-18 14:00N 32°19' W 090°54'3 5.8
2018-Jun-18 13:29N 32°21' W 090°57'0 0.2
2018-Jun-18 13:01N 32°21' W 090°57'0 0.0
2018-Jun-18 12:30N 32°21' W 090°57'0 0.0
2018-Jun-18 12:01N 32°21' W 090°57'0 0.0
2018-Jun-18 11:31N 32°21' W 090°57'0 0.0
2018-Jun-18 11:01N 32°21' W 090°57'1 1.9
2018-Jun-18 10:30N 32°21' W 090°58'3 5.8
2018-Jun-18 10:00N 32°24' W 090°60'4 7.1
2018-Jun-18 09:30N 32°26' W 091°03'4 8.0
2018-Jun-18 09:00N 32°28' W 091°06'4 7.6
2018-Jun-18 08:31N 32°32' W 091°06'4 7.7
2018-Jun-18 08:01N 32°35' W 091°08'4 7.4
2018-Jun-18 07:29N 32°39' W 091°09'6 3.0
2018-Jun-18 05:28N 32°45' W 091°10'0 0.0
2018-Jun-18 05:00N 32°45' W 091°10'0 0.0
2018-Jun-18 04:30N 32°45' W 091°10'0 0.0
2018-Jun-18 04:00N 32°45' W 091°10'0 0.0
2018-Jun-18 03:28N 32°45' W 091°10'0 0.3
2018-Jun-18 03:00N 32°45' W 091°09'  
Track history (hours):
 
Tides and Currents Weather Stations Pressure Air Temp Water Temp Dewpoint Dewpoint Depression Visibility Wind Speed Wind Dir Waves Ship Positions

M/V Michael Luhr

Owner: Luhr Bros., Inc, Cape Girardeau, MO. More information available from US FCC via Universal Licensing System and Coast Guard Vessel Documentation Center.

Last reported at 2018-Jun-21 03:47 UTC. Time now 2018-Jun-24 09:16 UTC.
Position N 32°40' W 091°08'.

Length 53 m; draft 3 m.

Type: Towing. MMSI: 366989940.

Date/timePositionNaut miles runAvg speedWind from/ knotsBaromVisibWave heightAir tempDewpointWater temp
2018-Jun-21 03:47N 32°40' W 091°08'3 3.7
2018-Jun-21 02:56N 32°37' W 091°09'1 1.4
2018-Jun-21 02:30N 32°36' W 091°09'0 0.0
2018-Jun-21 02:00N 32°36' W 091°09'0 0.0
2018-Jun-21 01:31N 32°36' W 091°09'1 2.2
2018-Jun-21 01:00N 32°36' W 091°08'2 4.1
2018-Jun-21 00:30N 32°34' W 091°06'5 4.3
2018-Jun-20 23:26N 32°30' W 091°07'2 4.6
2018-Jun-20 23:00N 32°28' W 091°06'2 4.7
2018-Jun-20 22:30N 32°27' W 091°04'3 5.1
2018-Jun-20 22:00N 32°26' W 091°01'2 4.4
2018-Jun-20 21:30N 32°24' W 090°59'2 4.7
2018-Jun-20 21:00N 32°21' W 091°00'2 4.8
2018-Jun-20 20:30N 32°21' W 090°57'2 5.1
2018-Jun-20 20:00N 32°20' W 090°54'2 4.3
2018-Jun-20 19:30N 32°18' W 090°55'0 0.5
2018-Jun-20 19:00N 32°18' W 090°55'0 0.0
2018-Jun-20 18:30N 32°18' W 090°55'0 0.0
2018-Jun-20 17:59N 32°18' W 090°55'0 0.0
2018-Jun-20 17:30N 32°18' W 090°55'0 0.0
2018-Jun-20 17:00N 32°18' W 090°55'0 0.0
2018-Jun-20 16:30N 32°18' W 090°55'1 2.6
2018-Jun-20 16:00N 32°17' W 090°57'2 4.6
2018-Jun-20 15:30N 32°16' W 090°58'2 4.1
2018-Jun-20 15:00N 32°14' W 090°59'2 4.2
2018-Jun-20 14:30N 32°12' W 090°60'2 3.6
2018-Jun-20 14:00N 32°10' W 091°00'2 3.9
2018-Jun-20 13:30N 32°08' W 091°00'2 3.6
2018-Jun-20 13:00N 32°07' W 091°02'2 3.8
2018-Jun-20 12:22N 32°08' W 091°05'1 2.8
2018-Jun-20 12:01N 32°08' W 091°06'2 3.4
2018-Jun-20 11:29N 32°06' W 091°06'3 2.9
2018-Jun-20 10:21N 32°03' W 091°03'1 4.0
2018-Jun-20 09:59N 32°02' W 091°04'2 4.6
2018-Jun-20 09:30N 32°00' W 091°05'6 3.7
2018-Jun-20 07:52N 31°57' W 091°11'7 3.6
2018-Jun-20 05:49N 31°51' W 091°17'3 3.7
2018-Jun-20 04:56N 31°51' W 091°21'2 3.5
2018-Jun-20 04:30N 31°49' W 091°21'2 3.4
2018-Jun-20 03:57N 31°48' W 091°21'2 3.6
2018-Jun-20 03:30N 31°46' W 091°22'4 4.1
2018-Jun-20 02:30N 31°42' W 091°24'26 0.8
2018-Jun-18 17:08N 32°02' W 091°04'1 7.6
2018-Jun-18 16:57N 32°03' W 091°03'3 7.7
2018-Jun-18 16:30N 32°06' W 091°06'5 5.4
2018-Jun-18 15:39N 32°08' W 091°01'1 8.4
2018-Jun-18 15:30N 32°09' W 091°00'4 7.8
2018-Jun-18 15:00N 32°13' W 090°59'4 7.8
2018-Jun-18 14:30N 32°16' W 090°57'4 8.2
2018-Jun-18 14:00N 32°19' W 090°54'3 5.8
2018-Jun-18 13:29N 32°21' W 090°57'0 0.2
2018-Jun-18 13:01N 32°21' W 090°57'0 0.0
2018-Jun-18 12:30N 32°21' W 090°57'0 0.0
2018-Jun-18 12:01N 32°21' W 090°57'0 0.0
2018-Jun-18 11:31N 32°21' W 090°57'0 0.0
2018-Jun-18 11:01N 32°21' W 090°57'1 1.9
2018-Jun-18 10:30N 32°21' W 090°58'3 5.8
2018-Jun-18 10:00N 32°24' W 090°60'4 7.1
2018-Jun-18 09:30N 32°26' W 091°03'4 8.0
2018-Jun-18 09:00N 32°28' W 091°06'4 7.6
2018-Jun-18 08:31N 32°32' W 091°06'4 7.7
2018-Jun-18 08:01N 32°35' W 091°08'4 7.4
2018-Jun-18 07:29N 32°39' W 091°09'6 3.0
2018-Jun-18 05:28N 32°45' W 091°10'0 0.0
2018-Jun-18 05:00N 32°45' W 091°10'0 0.0
2018-Jun-18 04:30N 32°45' W 091°10'0 0.0
2018-Jun-18 04:00N 32°45' W 091°10'0 0.0
2018-Jun-18 03:28N 32°45' W 091°10'0 0.3
2018-Jun-18 03:00N 32°45' W 091°09'  

Dump ship's entire track history